Time;durP1;ratioP1;P1;durP2;ratioP2;P2;SDS_P1;SDS_P2;PMS_P1;PMS_P2;Temp;Humidity;BMP_temperature;BMP_pressure;BME280_temperature;BME280_humidity;BME280_pressure;Samples;Min_cycle;Max_cycle;Signal;HPM_P1;HPM_P2
2023/01/19 00:00:56;;;;;;;0.10;0.10;;;;;;;;;;5017116;28;20208;-78
2023/01/19 00:03:24;;;;;;;0.10;0.10;;;;;;;;;;5017626;28;20282;-78
2023/01/19 00:05:53;;;;;;;0.10;0.10;;;;;;;;;;5017737;28;20289;-78
2023/01/19 00:08:21;;;;;;;0.10;0.10;;;;;;;;;;5017262;28;20574;-78
2023/01/19 00:10:50;;;;;;;0.10;0.10;;;;;;;;;;5017191;28;20558;-79
2023/01/19 00:13:19;;;;;;;0.10;0.10;;;;;;;;;;5017367;28;20662;-78
2023/01/19 00:15:49;;;;;;;0.07;0.07;;;;;;;;;;5017734;28;20569;-78
2023/01/19 00:18:17;;;;;;;0.10;0.10;;;;;;;;;;5016623;28;20282;-78
2023/01/19 00:20:46;;;;;;;0.00;0.00;;;;;;;;;;5017604;28;20234;-78
2023/01/19 00:23:15;;;;;;;0.10;0.10;;;;;;;;;;5017084;28;20215;-78
2023/01/19 00:25:43;;;;;;;0.00;0.00;;;;;;;;;;5017104;28;20228;-78
2023/01/19 00:28:13;;;;;;;0.10;0.10;;;;;;;;;;5017400;28;20689;-77
2023/01/19 00:30:41;;;;;;;0.10;0.10;;;;;;;;;;5017326;28;20223;-78
2023/01/19 00:33:13;;;;;;;0.10;0.10;;;;;;;;;;5016528;28;20250;-78
2023/01/19 00:35:42;;;;;;;0.10;0.10;;;;;;;;;;5016493;28;20185;-78
2023/01/19 00:38:11;;;;;;;0.10;0.10;;;;;;;;;;5016216;28;20228;-78
2023/01/19 00:40:39;;;;;;;0.10;0.10;;;;;;;;;;5016258;28;20212;-79
2023/01/19 00:43:07;;;;;;;0.00;0.00;;;;;;;;;;5016442;28;20665;-78
2023/01/19 00:45:35;;;;;;;0.00;0.00;;;;;;;;;;5016376;28;20228;-79
2023/01/19 00:48:04;;;;;;;0.00;0.00;;;;;;;;;;5016324;28;20224;-78
2023/01/19 00:50:34;;;;;;;0.10;0.10;;;;;;;;;;5016152;28;20243;-78
2023/01/19 00:53:02;;;;;;;0.10;0.10;;;;;;;;;;5016867;28;20251;-78
2023/01/19 00:55:32;;;;;;;0.10;0.10;;;;;;;;;;5015494;28;20215;-78
2023/01/19 00:58:01;;;;;;;0.10;0.10;;;;;;;;;;5016138;28;20763;-78
2023/01/19 01:00:30;;;;;;;0.10;0.10;;;;;;;;;;5016277;28;20684;-78
2023/01/19 01:02:59;;;;;;;0.10;0.10;;;;;;;;;;5016396;28;20219;-78
2023/01/19 01:05:28;;;;;;;0.10;0.10;;;;;;;;;;5016063;28;20189;-79
2023/01/19 01:07:58;;;;;;;0.00;0.00;;;;;;;;;;5015621;28;20275;-79
2023/01/19 01:10:27;;;;;;;0.00;0.00;;;;;;;;;;5016071;28;20617;-78
2023/01/19 01:12:56;;;;;;;0.00;0.00;;;;;;;;;;5016097;28;20216;-79
2023/01/19 01:15:44;;;;;;;0.07;0.07;;;;;;;;;;5015486;28;20211;-79
2023/01/19 01:18:13;;;;;;;0.00;0.00;;;;;;;;;;5015232;28;20354;-79
2023/01/19 01:20:41;;;;;;;0.10;0.10;;;;;;;;;;5015128;28;20205;-77
2023/01/19 01:23:11;;;;;;;0.10;0.10;;;;;;;;;;5015854;28;20200;-78
2023/01/19 01:25:39;;;;;;;0.10;0.10;;;;;;;;;;5015631;28;20258;-78
2023/01/19 01:28:08;;;;;;;0.00;0.00;;;;;;;;;;5015042;28;20228;-79
2023/01/19 01:30:38;;;;;;;0.10;0.10;;;;;;;;;;5015945;28;20573;-78
2023/01/19 01:33:07;;;;;;;0.10;0.10;;;;;;;;;;5014993;28;20286;-79
2023/01/19 01:35:35;;;;;;;0.10;0.10;;;;;;;;;;5015127;28;20672;-79
2023/01/19 01:38:04;;;;;;;0.10;0.10;;;;;;;;;;5015208;28;20243;-79
2023/01/19 01:40:34;;;;;;;0.00;0.00;;;;;;;;;;5014900;28;20255;-79
2023/01/19 01:43:02;;;;;;;0.00;0.00;;;;;;;;;;5014477;28;20207;-79
2023/01/19 01:45:33;;;;;;;0.00;0.00;;;;;;;;;;5015016;28;20235;-78
2023/01/19 01:48:07;;;;;;;0.10;0.10;;;;;;;;;;5014605;28;20315;-79
2023/01/19 01:50:38;;;;;;;0.00;0.00;;;;;;;;;;5015064;28;20184;-78
2023/01/19 01:53:09;;;;;;;0.10;0.10;;;;;;;;;;5014505;28;20190;-79
2023/01/19 01:55:41;;;;;;;0.10;0.10;;;;;;;;;;5014599;28;20655;-79
2023/01/19 01:58:11;;;;;;;0.10;0.10;;;;;;;;;;5014029;28;20220;-79
2023/01/19 02:03:27;;;;;;;0.10;0.10;;;;;;;;;;5014313;28;20321;-79
2023/01/19 02:05:58;;;;;;;0.00;0.00;;;;;;;;;;5014289;28;20305;-79
2023/01/19 02:14:05;;;;;;;0.10;0.10;;;;;;;;;;5014443;28;20633;-79
2023/01/19 02:16:33;;;;;;;0.10;0.10;;;;;;;;;;5014443;28;20219;-78
2023/01/19 02:19:02;;;;;;;0.10;0.10;;;;;;;;;;5013971;28;20279;-79
2023/01/19 02:21:34;;;;;;;0.00;0.00;;;;;;;;;;5013962;28;20207;-79
2023/01/19 02:24:04;;;;;;;0.10;0.10;;;;;;;;;;5014081;28;20239;-79
2023/01/19 02:26:35;;;;;;;0.10;0.10;;;;;;;;;;5014179;28;20232;-79
2023/01/19 02:29:05;;;;;;;0.10;0.10;;;;;;;;;;5014232;28;20278;-78
2023/01/19 02:31:36;;;;;;;0.00;0.00;;;;;;;;;;5014183;28;20246;-79
2023/01/19 02:34:05;;;;;;;0.10;0.10;;;;;;;;;;5014329;28;20256;-79
2023/01/19 02:36:37;;;;;;;0.00;0.00;;;;;;;;;;5013820;28;20200;-79
2023/01/19 02:39:07;;;;;;;0.10;0.10;;;;;;;;;;5013881;28;20232;-79
2023/01/19 02:41:38;;;;;;;0.17;0.17;;;;;;;;;;5013667;28;20234;-79
2023/01/19 02:44:07;;;;;;;0.10;0.10;;;;;;;;;;5014414;28;20704;-79
2023/01/19 02:46:36;;;;;;;0.03;0.03;;;;;;;;;;5013497;28;20259;-79
2023/01/19 02:49:04;;;;;;;0.10;0.10;;;;;;;;;;5013425;28;20224;-79
2023/01/19 02:51:33;;;;;;;0.00;0.00;;;;;;;;;;5013990;28;20266;-79
2023/01/19 02:54:15;;;;;;;0.00;0.00;;;;;;;;;;5013506;28;20245;-79
2023/01/19 02:56:48;;;;;;;0.10;0.10;;;;;;;;;;5013791;28;20243;-79
2023/01/19 02:59:22;;;;;;;0.00;0.00;;;;;;;;;;5013317;28;20263;-79
2023/01/19 03:02:02;;;;;;;0.10;0.10;;;;;;;;;;5013242;28;20235;-79
2023/01/19 03:04:37;;;;;;;0.10;0.10;;;;;;;;;;5013332;28;20269;-79
2023/01/19 03:07:09;;;;;;;0.00;0.00;;;;;;;;;;5013422;28;20266;-79
2023/01/19 03:09:42;;;;;;;0.00;0.00;;;;;;;;;;5013251;28;20224;-79
2023/01/19 03:12:16;;;;;;;0.10;0.10;;;;;;;;;;5013356;28;20189;-79
2023/01/19 03:14:48;;;;;;;0.00;0.00;;;;;;;;;;5013241;28;20244;-80
2023/01/19 03:17:17;;;;;;;0.03;0.03;;;;;;;;;;5013358;28;20224;-79
2023/01/19 03:19:49;;;;;;;0.00;0.00;;;;;;;;;;5015346;28;20389;-79
2023/01/19 03:22:20;;;;;;;0.10;0.10;;;;;;;;;;5016750;28;20208;-79
2023/01/19 03:24:51;;;;;;;0.00;0.00;;;;;;;;;;5016782;28;20247;-79
2023/01/19 03:27:21;;;;;;;0.10;0.10;;;;;;;;;;5016849;28;20209;-79
2023/01/19 03:29:52;;;;;;;0.10;0.10;;;;;;;;;;5016798;28;20650;-80
2023/01/19 03:32:23;;;;;;;0.10;0.10;;;;;;;;;;5016541;28;20279;-79
2023/01/19 03:34:52;;;;;;;0.00;0.00;;;;;;;;;;5016507;28;20193;-78
2023/01/19 03:37:21;;;;;;;0.00;0.00;;;;;;;;;;5016610;28;20223;-80
2023/01/19 03:39:51;;;;;;;0.10;0.10;;;;;;;;;;5016220;28;20200;-80
2023/01/19 03:42:19;;;;;;;0.10;0.10;;;;;;;;;;5016257;28;20209;-80
2023/01/19 03:44:49;;;;;;;0.10;0.10;;;;;;;;;;5016490;28;20258;-80
2023/01/19 03:47:18;;;;;;;0.00;0.00;;;;;;;;;;5015976;28;20220;-79
2023/01/19 03:49:47;;;;;;;0.00;0.00;;;;;;;;;;5016379;28;20207;-79
2023/01/19 03:52:15;;;;;;;0.10;0.10;;;;;;;;;;5016222;28;20725;-80
2023/01/19 03:54:44;;;;;;;0.10;0.10;;;;;;;;;;5016250;28;20331;-79
2023/01/19 03:57:14;;;;;;;0.00;0.00;;;;;;;;;;5015871;28;20256;-80
2023/01/19 03:59:42;;;;;;;0.10;0.10;;;;;;;;;;5016213;28;20209;-79
2023/01/19 04:02:10;;;;;;;0.00;0.00;;;;;;;;;;5016337;28;20200;-80
2023/01/19 04:04:39;;;;;;;0.10;0.10;;;;;;;;;;5015823;28;20220;-80
2023/01/19 04:07:09;;;;;;;0.00;0.00;;;;;;;;;;5016205;28;20616;-80
2023/01/19 04:09:37;;;;;;;0.10;0.10;;;;;;;;;;5015969;28;20634;-79
2023/01/19 04:12:06;;;;;;;0.00;0.00;;;;;;;;;;5016132;28;20208;-79
2023/01/19 04:14:35;;;;;;;0.00;0.00;;;;;;;;;;5016298;28;20253;-79
2023/01/19 04:17:04;;;;;;;0.10;0.10;;;;;;;;;;5015639;28;20208;-79
2023/01/19 04:19:32;;;;;;;0.10;0.10;;;;;;;;;;5015493;28;20208;-79
2023/01/19 04:22:01;;;;;;;0.00;0.00;;;;;;;;;;5015375;28;20243;-80
2023/01/19 04:24:29;;;;;;;0.00;0.00;;;;;;;;;;5015640;28;20204;-80
2023/01/19 04:26:58;;;;;;;0.10;0.10;;;;;;;;;;5015498;28;20263;-80
2023/01/19 04:29:26;;;;;;;0.03;0.03;;;;;;;;;;5015378;28;20232;-80
2023/01/19 04:31:56;;;;;;;0.00;0.00;;;;;;;;;;5015730;28;20639;-80
2023/01/19 04:34:24;;;;;;;0.00;0.00;;;;;;;;;;5015455;28;20716;-79
2023/01/19 04:36:54;;;;;;;0.00;0.00;;;;;;;;;;5015892;28;20200;-79
2023/01/19 04:39:23;;;;;;;0.00;0.00;;;;;;;;;;5015947;28;20220;-79
2023/01/19 04:41:51;;;;;;;0.00;0.00;;;;;;;;;;5015589;28;20204;-80
2023/01/19 04:44:20;;;;;;;0.10;0.10;;;;;;;;;;5015051;28;20209;-80
2023/01/19 04:46:50;;;;;;;0.10;0.10;;;;;;;;;;5015343;28;20212;-80
2023/01/19 04:49:20;;;;;;;0.00;0.00;;;;;;;;;;5015427;28;20224;-80
2023/01/19 04:51:48;;;;;;;0.10;0.10;;;;;;;;;;5014892;28;20212;-80
2023/01/19 04:54:16;;;;;;;0.10;0.10;;;;;;;;;;5015421;28;20651;-80
2023/01/19 04:56:45;;;;;;;0.00;0.00;;;;;;;;;;5015327;28;20209;-80
2023/01/19 04:59:14;;;;;;;0.10;0.10;;;;;;;;;;5014901;28;20217;-80
2023/01/19 05:01:42;;;;;;;0.00;0.00;;;;;;;;;;5014932;28;20209;-80
2023/01/19 05:04:10;;;;;;;0.10;0.10;;;;;;;;;;5014744;28;20209;-79
2023/01/19 05:06:40;;;;;;;0.10;0.10;;;;;;;;;;5014891;28;20211;-80
2023/01/19 05:09:11;;;;;;;0.00;0.00;;;;;;;;;;5014608;28;20682;-80
2023/01/19 05:11:40;;;;;;;0.03;0.03;;;;;;;;;;5014756;28;20190;-79
2023/01/19 05:14:08;;;;;;;0.10;0.10;;;;;;;;;;5014426;28;20240;-79
2023/01/19 05:16:37;;;;;;;0.10;0.10;;;;;;;;;;5014665;28;20278;-80
2023/01/19 05:19:05;;;;;;;0.10;0.10;;;;;;;;;;5014528;28;20222;-79
2023/01/19 05:21:34;;;;;;;0.00;0.00;;;;;;;;;;5015091;28;20221;-79
2023/01/19 05:24:03;;;;;;;0.10;0.10;;;;;;;;;;5014219;28;20591;-79
2023/01/19 05:26:32;;;;;;;0.10;0.10;;;;;;;;;;5014584;28;20236;-79
2023/01/19 05:29:00;;;;;;;0.00;0.00;;;;;;;;;;5014058;28;20225;-80
2023/01/19 05:31:29;;;;;;;0.10;0.10;;;;;;;;;;5013672;28;20258;-79
2023/01/19 05:33:57;;;;;;;0.10;0.10;;;;;;;;;;5014144;28;20204;-80
2023/01/19 05:36:26;;;;;;;0.00;0.00;;;;;;;;;;5013637;28;20251;-79
2023/01/19 05:38:54;;;;;;;0.00;0.00;;;;;;;;;;5014091;28;20221;-79
2023/01/19 05:41:25;;;;;;;0.00;0.00;;;;;;;;;;5013988;28;20283;-80
2023/01/19 05:43:54;;;;;;;0.00;0.00;;;;;;;;;;5014367;28;20190;-80
2023/01/19 05:46:23;;;;;;;0.00;0.00;;;;;;;;;;5014019;28;20221;-80
2023/01/19 05:48:51;;;;;;;0.00;0.00;;;;;;;;;;5013716;28;20313;-80
2023/01/19 05:51:20;;;;;;;0.10;0.10;;;;;;;;;;5014110;28;20247;-79
2023/01/19 05:53:48;;;;;;;0.00;0.00;;;;;;;;;;5013929;28;20212;-80
2023/01/19 05:56:16;;;;;;;0.10;0.10;;;;;;;;;;5014069;28;20209;-80
2023/01/19 05:58:46;;;;;;;0.07;0.07;;;;;;;;;;5014104;28;20224;-80
2023/01/19 06:01:15;;;;;;;0.00;0.00;;;;;;;;;;5014708;28;20290;-80
2023/01/19 06:03:43;;;;;;;0.00;0.00;;;;;;;;;;5013866;28;20738;-79
2023/01/19 06:06:15;;;;;;;0.00;0.00;;;;;;;;;;5014222;28;20208;-80
2023/01/19 06:08:43;;;;;;;0.03;0.03;;;;;;;;;;5013547;28;20220;-80
2023/01/19 06:11:12;;;;;;;0.10;0.10;;;;;;;;;;5013782;28;20247;-79
2023/01/19 06:13:40;;;;;;;0.10;0.10;;;;;;;;;;5013675;28;20208;-80
2023/01/19 06:16:11;;;;;;;0.00;0.00;;;;;;;;;;5013841;28;20233;-79
2023/01/19 06:18:40;;;;;;;0.10;0.10;;;;;;;;;;5013399;28;20311;-80
2023/01/19 06:21:11;;;;;;;0.00;0.00;;;;;;;;;;5013678;28;20212;-80
2023/01/19 06:23:39;;;;;;;0.10;0.10;;;;;;;;;;5013051;28;20199;-80
2023/01/19 06:26:08;;;;;;;0.00;0.00;;;;;;;;;;5013771;28;20204;-80
2023/01/19 06:28:36;;;;;;;0.07;0.07;;;;;;;;;;5013129;28;20231;-80
2023/01/19 06:31:04;;;;;;;0.00;0.00;;;;;;;;;;5013584;28;20206;-80
2023/01/19 06:33:34;;;;;;;0.10;0.10;;;;;;;;;;5013207;28;20208;-80
2023/01/19 06:36:03;;;;;;;0.00;0.00;;;;;;;;;;5013564;28;20211;-80
2023/01/19 06:38:32;;;;;;;0.10;0.10;;;;;;;;;;5013582;28;20642;-81
2023/01/19 06:41:01;;;;;;;0.10;0.10;;;;;;;;;;5013230;28;20208;-80
2023/01/19 06:43:30;;;;;;;0.10;0.10;;;;;;;;;;5013371;28;20218;-80
2023/01/19 06:45:59;;;;;;;0.00;0.00;;;;;;;;;;5013466;28;20215;-80
2023/01/19 06:48:28;;;;;;;0.10;0.10;;;;;;;;;;5012989;28;20224;-79
2023/01/19 06:50:58;;;;;;;0.10;0.10;;;;;;;;;;5013467;28;20204;-80
2023/01/19 06:53:29;;;;;;;0.07;0.07;;;;;;;;;;5013874;28;20212;-80
2023/01/19 06:56:00;;;;;;;0.00;0.00;;;;;;;;;;5017590;28;20601;-80
2023/01/19 06:58:32;;;;;;;0.10;0.10;;;;;;;;;;5017357;28;20777;-79
2023/01/19 07:01:02;;;;;;;0.10;0.10;;;;;;;;;;5017695;28;20215;-81
2023/01/19 07:03:30;;;;;;;0.10;0.10;;;;;;;;;;5017485;28;20216;-79
2023/01/19 07:06:01;;;;;;;0.10;0.10;;;;;;;;;;5017157;28;20197;-80
2023/01/19 07:08:29;;;;;;;0.10;0.10;;;;;;;;;;5017128;28;20225;-80
2023/01/19 07:11:00;;;;;;;0.00;0.00;;;;;;;;;;5016924;28;20773;-80
2023/01/19 07:13:50;;;;;;;0.10;0.10;;;;;;;;;;5016650;28;20209;-79
2023/01/19 07:16:19;;;;;;;0.10;0.10;;;;;;;;;;5017209;28;20286;-80
2023/01/19 07:18:48;;;;;;;0.10;0.10;;;;;;;;;;5016734;28;20220;-80
2023/01/19 07:21:18;;;;;;;0.10;0.10;;;;;;;;;;5017028;28;20262;-80
2023/01/19 07:23:48;;;;;;;0.10;0.10;;;;;;;;;;5016887;28;20287;-80
2023/01/19 07:26:19;;;;;;;0.10;0.10;;;;;;;;;;5016377;28;20209;-80
2023/01/19 07:28:48;;;;;;;0.10;0.10;;;;;;;;;;5016486;28;20311;-80
2023/01/19 07:31:17;;;;;;;0.10;0.10;;;;;;;;;;5016596;28;20564;-79
2023/01/19 07:33:49;;;;;;;0.00;0.00;;;;;;;;;;5016470;28;20236;-79
2023/01/19 07:36:20;;;;;;;0.00;0.00;;;;;;;;;;5016334;28;20193;-80
2023/01/19 07:38:48;;;;;;;0.00;0.00;;;;;;;;;;5016366;28;20651;-79
2023/01/19 07:41:17;;;;;;;0.10;0.10;;;;;;;;;;5015926;28;20205;-79
2023/01/19 07:43:45;;;;;;;0.00;0.00;;;;;;;;;;5016440;28;20712;-79
2023/01/19 07:46:14;;;;;;;0.10;0.10;;;;;;;;;;5016383;28;20292;-80
2023/01/19 07:48:43;;;;;;;0.00;0.00;;;;;;;;;;5016357;28;20231;-80
2023/01/19 07:51:16;;;;;;;0.00;0.00;;;;;;;;;;5016328;28;20217;-80
2023/01/19 07:53:46;;;;;;;0.00;0.00;;;;;;;;;;5016151;28;20654;-79
2023/01/19 07:56:15;;;;;;;0.10;0.10;;;;;;;;;;5015981;28;20205;-79
2023/01/19 07:58:45;;;;;;;0.10;0.10;;;;;;;;;;5015687;28;20224;-79
2023/01/19 08:01:14;;;;;;;0.00;0.00;;;;;;;;;;5016116;28;20214;-80
2023/01/19 08:03:42;;;;;;;0.10;0.10;;;;;;;;;;5015802;28;20236;-80
2023/01/19 08:06:17;;;;;;;0.00;0.00;;;;;;;;;;5015911;28;20542;-80
2023/01/19 08:08:47;;;;;;;0.00;0.00;;;;;;;;;;5015725;28;20227;-80
2023/01/19 08:11:15;;;;;;;0.10;0.10;;;;;;;;;;5015886;28;20227;-80
2023/01/19 08:13:44;;;;;;;0.10;0.10;;;;;;;;;;5016093;28;20205;-80
2023/01/19 08:16:13;;;;;;;0.10;0.10;;;;;;;;;;5015764;28;20211;-80
2023/01/19 08:18:41;;;;;;;0.10;0.10;;;;;;;;;;5015619;28;20232;-80
2023/01/19 08:21:10;;;;;;;0.10;0.10;;;;;;;;;;5015519;28;20201;-79
2023/01/19 08:23:38;;;;;;;0.10;0.10;;;;;;;;;;5015469;28;20620;-81
2023/01/19 08:26:19;;;;;;;0.00;0.00;;;;;;;;;;5015848;28;20203;-80
2023/01/19 08:28:47;;;;;;;0.00;0.00;;;;;;;;;;5015757;28;20228;-80
2023/01/19 08:31:16;;;;;;;0.10;0.10;;;;;;;;;;5015712;28;20636;-80
2023/01/19 08:33:50;;;;;;;0.10;0.10;;;;;;;;;;5015500;28;20298;-80
2023/01/19 08:36:18;;;;;;;0.00;0.00;;;;;;;;;;5015270;28;20207;-80
2023/01/19 08:38:47;;;;;;;0.10;0.10;;;;;;;;;;5015362;28;20267;-80
2023/01/19 08:41:16;;;;;;;0.00;0.00;;;;;;;;;;5014694;28;20235;-80
2023/01/19 08:44:00;;;;;;;0.10;0.10;;;;;;;;;;5014934;28;20199;-80
2023/01/19 08:46:28;;;;;;;0.10;0.10;;;;;;;;;;5014955;28;20278;-80
2023/01/19 08:48:57;;;;;;;0.00;0.00;;;;;;;;;;5015000;28;20239;-80
2023/01/19 08:51:25;;;;;;;0.00;0.00;;;;;;;;;;5014653;28;20224;-80
2023/01/19 08:53:54;;;;;;;0.00;0.00;;;;;;;;;;5014775;28;20212;-81
2023/01/19 08:56:22;;;;;;;0.00;0.00;;;;;;;;;;5015219;28;20204;-80
2023/01/19 08:58:51;;;;;;;0.07;0.07;;;;;;;;;;5014935;28;20708;-80
2023/01/19 09:01:40;;;;;;;0.00;0.00;;;;;;;;;;5014494;28;20212;-80
2023/01/19 09:04:09;;;;;;;0.00;0.00;;;;;;;;;;5014709;28;20218;-80
2023/01/19 09:06:37;;;;;;;0.00;0.00;;;;;;;;;;5014421;28;20204;-81
2023/01/19 09:09:06;;;;;;;0.00;0.00;;;;;;;;;;5014561;28;20282;-79
2023/01/19 09:11:34;;;;;;;0.10;0.10;;;;;;;;;;5014627;28;20345;-80
2023/01/19 09:14:04;;;;;;;0.00;0.00;;;;;;;;;;5014391;28;20270;-80
2023/01/19 09:16:33;;;;;;;0.00;0.00;;;;;;;;;;5013698;28;20204;-80
2023/01/19 09:19:03;;;;;;;0.10;0.10;;;;;;;;;;5014574;28;20231;-80
2023/01/19 09:21:31;;;;;;;0.00;0.00;;;;;;;;;;5014559;28;20640;-79
2023/01/19 09:23:59;;;;;;;0.10;0.10;;;;;;;;;;5014649;28;20609;-80
2023/01/19 09:26:28;;;;;;;0.03;0.03;;;;;;;;;;5014382;28;20201;-80
2023/01/19 09:28:59;;;;;;;0.00;0.00;;;;;;;;;;5014296;28;20241;-79
2023/01/19 09:31:27;;;;;;;0.00;0.00;;;;;;;;;;5013777;28;20227;-80
2023/01/19 09:33:56;;;;;;;0.00;0.00;;;;;;;;;;5014361;28;20740;-80
2023/01/19 09:36:26;;;;;;;0.03;0.03;;;;;;;;;;5014233;28;20617;-80
2023/01/19 09:38:54;;;;;;;0.00;0.00;;;;;;;;;;5013970;28;20232;-80
2023/01/19 09:41:24;;;;;;;0.03;0.03;;;;;;;;;;5013233;28;20204;-80
2023/01/19 09:43:55;;;;;;;0.00;0.00;;;;;;;;;;5013976;28;20193;-80
2023/01/19 09:46:26;;;;;;;0.00;0.00;;;;;;;;;;5013936;28;20235;-80
2023/01/19 09:48:56;;;;;;;0.00;0.00;;;;;;;;;;5013439;28;20232;-80
2023/01/19 09:51:26;;;;;;;0.07;0.07;;;;;;;;;;5013641;28;20207;-80
2023/01/19 09:53:57;;;;;;;0.00;0.00;;;;;;;;;;5014159;28;20189;-80
2023/01/19 09:56:28;;;;;;;0.00;0.00;;;;;;;;;;5014063;28;20672;-80
2023/01/19 09:58:56;;;;;;;0.10;0.10;;;;;;;;;;5013515;28;20224;-80
2023/01/19 10:01:33;;;;;;;0.00;0.00;;;;;;;;;;5014261;28;20251;-80
2023/01/19 10:04:23;;;;;;;0.00;0.00;;;;;;;;;;5014132;28;20693;-80
2023/01/19 10:06:57;;;;;;;0.00;0.00;;;;;;;;;;5009075;28;20666;-80
2023/01/19 10:09:31;;;;;;;0.10;0.10;;;;;;;;;;5013710;28;20255;-79
2023/01/19 10:12:03;;;;;;;0.00;0.00;;;;;;;;;;5013556;28;20262;-81
2023/01/19 10:14:34;;;;;;;0.00;0.00;;;;;;;;;;5013638;28;20211;-80
2023/01/19 10:17:10;;;;;;;0.00;0.00;;;;;;;;;;5013861;28;20651;-81
2023/01/19 10:19:43;;;;;;;0.10;0.10;;;;;;;;;;5013770;28;20192;-81
2023/01/19 10:22:19;;;;;;;0.00;0.00;;;;;;;;;;5013576;28;20180;-80
2023/01/19 10:24:49;;;;;;;0.10;0.10;;;;;;;;;;5013891;28;20692;-80
2023/01/19 10:27:18;;;;;;;0.00;0.00;;;;;;;;;;5013756;28;20212;-81
2023/01/19 10:29:47;;;;;;;0.00;0.00;;;;;;;;;;5017821;28;20271;-81
2023/01/19 10:32:18;;;;;;;0.00;0.00;;;;;;;;;;5017822;28;20316;-80
2023/01/19 10:34:47;;;;;;;0.00;0.00;;;;;;;;;;5018031;28;20620;-80
2023/01/19 10:37:22;;;;;;;0.00;0.00;;;;;;;;;;5017808;28;20204;-80
2023/01/19 10:39:53;;;;;;;0.00;0.00;;;;;;;;;;5018132;28;20230;-81
2023/01/19 10:42:21;;;;;;;0.00;0.00;;;;;;;;;;5017646;28;20185;-80
2023/01/19 10:44:50;;;;;;;0.00;0.00;;;;;;;;;;5017640;28;20209;-81
2023/01/19 10:47:19;;;;;;;0.00;0.00;;;;;;;;;;5017305;28;20220;-81
2023/01/19 10:49:48;;;;;;;0.00;0.00;;;;;;;;;;5017526;28;20665;-81
2023/01/19 10:52:25;;;;;;;0.00;0.00;;;;;;;;;;5017343;28;20755;-81
2023/01/19 10:54:53;;;;;;;0.03;0.03;;;;;;;;;;5017288;28;20300;-81
2023/01/19 10:57:26;;;;;;;0.00;0.00;;;;;;;;;;5017290;28;20573;-81
2023/01/19 10:59:54;;;;;;;0.00;0.00;;;;;;;;;;5017639;28;20549;-81
2023/01/19 11:02:27;;;;;;;0.00;0.00;;;;;;;;;;5017504;28;20208;-82
2023/01/19 11:04:57;;;;;;;0.00;0.00;;;;;;;;;;5017158;28;20303;-81
2023/01/19 11:07:31;;;;;;;0.00;0.00;;;;;;;;;;5016977;28;20291;-82
2023/01/19 11:10:12;;;;;;;0.00;0.00;;;;;;;;;;5017117;28;20185;-82
2023/01/19 11:12:42;;;;;;;0.00;0.00;;;;;;;;;;5017496;28;20205;-82
2023/01/19 11:15:14;;;;;;;0.00;0.00;;;;;;;;;;5016634;28;20209;-82
2023/01/19 11:17:47;;;;;;;0.00;0.00;;;;;;;;;;5017208;28;20233;-82
2023/01/19 11:20:20;;;;;;;0.00;0.00;;;;;;;;;;5017038;28;20628;-82
2023/01/19 11:23:04;;;;;;;0.00;0.00;;;;;;;;;;5016617;28;20273;-82
2023/01/19 11:25:33;;;;;;;0.00;0.00;;;;;;;;;;5016989;28;20258;-81
2023/01/19 11:28:03;;;;;;;0.07;0.07;;;;;;;;;;5016299;28;20231;-82
2023/01/19 11:30:32;;;;;;;0.00;0.00;;;;;;;;;;5016305;28;20236;-82
2023/01/19 11:33:00;;;;;;;0.00;0.00;;;;;;;;;;5016152;28;20260;-82
2023/01/19 11:35:33;;;;;;;0.00;0.00;;;;;;;;;;5016766;28;20216;-83
2023/01/19 11:38:19;;;;;;;0.00;0.00;;;;;;;;;;5016896;28;20224;-82
2023/01/19 11:40:52;;;;;;;0.00;0.00;;;;;;;;;;5016946;28;20718;-82
2023/01/19 11:43:22;;;;;;;0.00;0.00;;;;;;;;;;5018959;28;20178;-83
2023/01/19 11:45:50;;;;;;;0.00;0.00;;;;;;;;;;5019092;28;20258;-83
2023/01/19 11:48:24;;;;;;;0.00;0.00;;;;;;;;;;5019785;28;20225;-82
2023/01/19 11:50:52;;;;;;;0.00;0.00;;;;;;;;;;5020451;28;20580;-82
2023/01/19 11:53:24;;;;;;;0.00;0.00;;;;;;;;;;5020408;28;20225;-83
2023/01/19 11:55:55;;;;;;;0.00;0.00;;;;;;;;;;5019256;28;20683;-82
2023/01/19 11:58:24;;;;;;;0.00;0.00;;;;;;;;;;5018963;28;20226;-82
2023/01/19 12:00:55;;;;;;;0.00;0.00;;;;;;;;;;5020176;28;20324;-82
2023/01/19 12:03:25;;;;;;;0.00;0.00;;;;;;;;;;5018996;28;20210;-82
2023/01/19 12:05:56;;;;;;;0.00;0.00;;;;;;;;;;5022806;28;20197;-83
2023/01/19 12:08:28;;;;;;;0.00;0.00;;;;;;;;;;5024253;28;20284;-82
2023/01/19 12:10:59;;;;;;;0.00;0.00;;;;;;;;;;5022565;28;20255;-83
2023/01/19 12:13:29;;;;;;;0.00;0.00;;;;;;;;;;5029707;28;20224;-83
2023/01/19 12:16:00;;;;;;;0.00;0.00;;;;;;;;;;5032863;28;20216;-83
2023/01/19 12:18:31;;;;;;;0.00;0.00;;;;;;;;;;5033504;28;20225;-83
2023/01/19 12:20:59;;;;;;;0.00;0.00;;;;;;;;;;5030207;28;20221;-83
2023/01/19 12:23:37;;;;;;;0.00;0.00;;;;;;;;;;5029175;28;20601;-83
2023/01/19 12:26:21;;;;;;;0.00;0.00;;;;;;;;;;5024664;28;20213;-82
2023/01/19 12:28:51;;;;;;;0.00;0.00;;;;;;;;;;5025932;28;20232;-83
2023/01/19 12:31:21;;;;;;;0.00;0.00;;;;;;;;;;5022007;28;20206;-83
2023/01/19 12:33:50;;;;;;;0.00;0.00;;;;;;;;;;5022642;28;20218;-83
2023/01/19 12:36:35;;;;;;;0.00;0.00;;;;;;;;;;5025265;28;20617;-83
2023/01/19 12:39:06;;;;;;;0.00;0.00;;;;;;;;;;5024836;28;20230;-83
2023/01/19 12:41:35;;;;;;;0.00;0.00;;;;;;;;;;5028218;28;20209;-83
2023/01/19 12:44:21;;;;;;;0.00;0.00;;;;;;;;;;5023524;28;20216;-83
2023/01/19 12:46:51;;;;;;;0.00;0.00;;;;;;;;;;5026724;28;20215;-83
2023/01/19 12:49:23;;;;;;;0.00;0.00;;;;;;;;;;5026600;28;20231;-83
2023/01/19 12:51:53;;;;;;;0.00;0.00;;;;;;;;;;5028166;28;20206;-83
2023/01/19 12:54:26;;;;;;;0.00;0.00;;;;;;;;;;5027805;28;20250;-83
2023/01/19 12:56:58;;;;;;;0.00;0.00;;;;;;;;;;5026168;28;20218;-80
2023/01/19 12:59:28;;;;;;;0.00;0.00;;;;;;;;;;5016677;28;20258;-79
2023/01/19 13:02:15;;;;;;;0.00;0.00;;;;;;;;;;5014540;28;20207;-79
2023/01/19 13:05:04;;;;;;;0.00;0.00;;;;;;;;;;5027941;28;20667;-80
2023/01/19 13:07:52;;;;;;;0.00;0.00;;;;;;;;;;5031745;28;20618;-80
2023/01/19 13:10:39;;;;;;;0.00;0.00;;;;;;;;;;4994855;28;20254;-80
2023/01/19 13:13:17;;;;;;;0.00;0.00;;;;;;;;;;5024103;28;20272;-79
2023/01/19 13:15:46;;;;;;;0.00;0.00;;;;;;;;;;5034161;28;20187;-80
2023/01/19 13:18:18;;;;;;;0.00;0.00;;;;;;;;;;5033840;28;20269;-81
2023/01/19 13:20:49;;;;;;;0.00;0.00;;;;;;;;;;5022610;28;20192;-80
2023/01/19 13:23:22;;;;;;;0.00;0.00;;;;;;;;;;5014260;28;20208;-80
2023/01/19 13:26:02;;;;;;;0.00;0.00;;;;;;;;;;5014618;28;20630;-80
2023/01/19 13:28:33;;;;;;;0.00;0.00;;;;;;;;;;5014127;28;20275;-80
2023/01/19 13:31:03;;;;;;;0.00;0.00;;;;;;;;;;5014484;28;20658;-80
2023/01/19 13:33:36;;;;;;;0.10;0.10;;;;;;;;;;5014094;28;20255;-79
2023/01/19 13:36:15;;;;;;;0.10;0.10;;;;;;;;;;5014438;28;20633;-80
2023/01/19 13:38:44;;;;;;;0.00;0.00;;;;;;;;;;5014047;28;20259;-80
2023/01/19 13:41:15;;;;;;;0.00;0.00;;;;;;;;;;5014333;28;20259;-80
2023/01/19 13:43:45;;;;;;;0.00;0.00;;;;;;;;;;5014260;28;20208;-80
2023/01/19 13:46:16;;;;;;;0.00;0.00;;;;;;;;;;5013740;28;20208;-80
2023/01/19 13:48:53;;;;;;;0.00;0.00;;;;;;;;;;5014282;28;20713;-79
2023/01/19 13:51:22;;;;;;;0.00;0.00;;;;;;;;;;5013984;28;20188;-78
2023/01/19 13:53:54;;;;;;;0.00;0.00;;;;;;;;;;5013858;28;20270;-80
2023/01/19 13:56:23;;;;;;;0.10;0.10;;;;;;;;;;5014457;28;20205;-79
2023/01/19 13:59:08;;;;;;;0.07;0.07;;;;;;;;;;5013772;28;20278;-79
2023/01/19 14:01:38;;;;;;;0.10;0.10;;;;;;;;;;5014334;28;20643;-79
2023/01/19 14:04:06;;;;;;;0.00;0.00;;;;;;;;;;5012462;28;20243;-78
2023/01/19 14:06:37;;;;;;;0.00;0.00;;;;;;;;;;5013542;28;20274;-79
2023/01/19 14:09:06;;;;;;;0.00;0.00;;;;;;;;;;5013345;28;20227;-79
2023/01/19 14:11:35;;;;;;;0.00;0.00;;;;;;;;;;5013657;28;20204;-79
2023/01/19 14:14:05;;;;;;;0.00;0.00;;;;;;;;;;5013728;28;20294;-80
2023/01/19 14:16:33;;;;;;;0.10;0.10;;;;;;;;;;5013604;28;20251;-79
2023/01/19 14:19:04;;;;;;;0.10;0.10;;;;;;;;;;5013701;28;20229;-80
2023/01/19 14:21:39;;;;;;;0.03;0.03;;;;;;;;;;5013909;28;20193;-80
2023/01/19 14:24:09;;;;;;;0.00;0.00;;;;;;;;;;5014053;28;20223;-79
2023/01/19 14:26:42;;;;;;;0.00;0.00;;;;;;;;;;5013999;28;20724;-79
2023/01/19 14:29:19;;;;;;;0.00;0.00;;;;;;;;;;5013724;28;20229;-79
2023/01/19 14:31:48;;;;;;;0.00;0.00;;;;;;;;;;5013962;28;20646;-79
2023/01/19 14:34:29;;;;;;;0.00;0.00;;;;;;;;;;5013685;28;20224;-79
2023/01/19 14:36:58;;;;;;;0.00;0.00;;;;;;;;;;5013899;28;20227;-79
2023/01/19 14:39:28;;;;;;;0.00;0.00;;;;;;;;;;5013543;28;20232;-79
2023/01/19 14:41:58;;;;;;;0.00;0.00;;;;;;;;;;5013541;28;20712;-79
2023/01/19 14:44:30;;;;;;;0.00;0.00;;;;;;;;;;5013772;28;20193;-79
2023/01/19 14:46:58;;;;;;;0.00;0.00;;;;;;;;;;5013867;28;20188;-79
2023/01/19 14:49:31;;;;;;;0.00;0.00;;;;;;;;;;5013488;28;20231;-79
2023/01/19 14:52:00;;;;;;;0.00;0.00;;;;;;;;;;5013669;28;20212;-78
2023/01/19 14:54:32;;;;;;;0.07;0.07;;;;;;;;;;5013594;28;20286;-79
2023/01/19 14:57:00;;;;;;;0.10;0.10;;;;;;;;;;5013577;28;20209;-79
2023/01/19 14:59:32;;;;;;;0.00;0.00;;;;;;;;;;5013477;28;20732;-79
2023/01/19 15:02:01;;;;;;;0.00;0.00;;;;;;;;;;5012436;28;20258;-78
2023/01/19 15:04:29;;;;;;;0.10;0.10;;;;;;;;;;5012054;28;20971;-81
2023/01/19 15:06:58;;;;;;;0.00;0.00;;;;;;;;;;5013282;28;20675;-81
2023/01/19 15:09:26;;;;;;;0.10;0.10;;;;;;;;;;5012830;28;20218;-80
2023/01/19 15:11:55;;;;;;;0.10;0.10;;;;;;;;;;5012875;28;20267;-81